Time;durP1;ratioP1;P1;durP2;ratioP2;P2;SDS_P1;SDS_P2;PMS_P1;PMS_P2;Temp;Humidity;BMP_temperature;BMP_pressure;BME280_temperature;BME280_humidity;BME280_pressure;Samples;Min_cycle;Max_cycle;Signal;HPM_P1;HPM_P2
2022/07/18 00:00:06;;;;;;;4.35;1.40;;;27.20;57.30;;;;;;5033083;28;20390;-79
2022/07/18 00:02:32;;;;;;;3.50;1.02;;;27.10;57.30;;;;;;5033174;28;20010;-79
2022/07/18 00:04:57;;;;;;;2.00;1.00;;;27.10;57.00;;;;;;5033151;28;20108;-78
2022/07/18 00:07:23;;;;;;;1.88;1.00;;;27.10;57.60;;;;;;5033098;28;20023;-78
2022/07/18 00:09:49;;;;;;;2.83;1.30;;;27.00;57.40;;;;;;5032930;28;20397;-79
2022/07/18 00:12:14;;;;;;;2.83;1.10;;;27.00;57.30;;;;;;5032885;28;20021;-79
2022/07/18 00:14:40;;;;;;;5.07;1.10;;;27.00;57.80;;;;;;5032852;28;20065;-78
2022/07/18 00:17:07;;;;;;;2.30;1.25;;;27.00;57.90;;;;;;5032770;28;20059;-79
2022/07/18 00:19:33;;;;;;;3.88;1.65;;;26.90;57.90;;;;;;5032666;28;20030;-79
2022/07/18 00:22:00;;;;;;;4.68;1.33;;;26.90;58.00;;;;;;5032647;28;20355;-78
2022/07/18 00:24:26;;;;;;;5.03;1.15;;;26.80;58.20;;;;;;5032724;28;20091;-79
2022/07/18 00:26:52;;;;;;;2.67;1.20;;;26.80;58.30;;;;;;5032588;28;20013;-79
2022/07/18 00:29:18;;;;;;;1.77;1.20;;;26.80;58.40;;;;;;5032409;28;20412;-78
2022/07/18 00:31:43;;;;;;;3.15;1.05;;;26.70;58.60;;;;;;5014654;28;20049;-78
2022/07/18 00:34:09;;;;;;;2.60;1.15;;;26.70;58.60;;;;;;5032813;28;20040;-78
2022/07/18 00:36:35;;;;;;;7.18;1.50;;;26.60;58.80;;;;;;5031083;28;20025;-79
2022/07/18 00:39:00;;;;;;;2.15;1.00;;;26.60;59.00;;;;;;5032496;28;20082;-78
2022/07/18 00:41:26;;;;;;;5.60;1.20;;;26.50;59.00;;;;;;5032134;28;20029;-79
2022/07/18 00:43:52;;;;;;;2.00;1.20;;;26.50;59.40;;;;;;5032081;28;20071;-78
2022/07/18 00:46:26;;;;;;;2.60;1.10;;;26.50;59.10;;;;;;5032311;28;20037;-79
2022/07/18 00:48:52;;;;;;;2.50;1.20;;;26.40;59.60;;;;;;5032032;28;20029;-79
2022/07/18 00:51:18;;;;;;;2.53;0.93;;;26.50;59.60;;;;;;5032123;28;20038;-79
2022/07/18 00:53:45;;;;;;;1.98;1.08;;;26.40;59.50;;;;;;5032184;28;20496;-79
2022/07/18 00:56:12;;;;;;;2.90;1.00;;;26.40;59.60;;;;;;5032287;28;20030;-79
2022/07/18 00:58:37;;;;;;;2.17;1.25;;;26.30;59.80;;;;;;5032061;28;20175;-78
2022/07/18 01:01:48;;;;;;;9.43;1.20;;;26.30;60.00;;;;;;5032084;28;20541;-79
2022/07/18 01:03:49;;;;;;;2.03;1.20;;;26.20;60.00;;;;;;5016997;28;20030;-79
2022/07/18 01:06:15;;;;;;;1.65;1.08;;;26.10;60.50;;;;;;5031930;28;20042;-79
2022/07/18 01:08:43;;;;;;;1.60;1.10;;;26.10;60.40;;;;;;5032063;28;20082;-79
2022/07/18 01:11:09;;;;;;;2.83;1.13;;;26.10;60.70;;;;;;5031799;28;20041;-79
2022/07/18 01:13:37;;;;;;;4.82;1.30;;;26.10;61.20;;;;;;5032066;28;20496;-79
2022/07/18 01:16:03;;;;;;;5.65;1.08;;;26.10;60.50;;;;;;5031808;28;20026;-79
2022/07/18 01:18:29;;;;;;;4.05;1.10;;;26.10;60.70;;;;;;5031568;28;20014;-79
2022/07/18 01:20:55;;;;;;;1.92;1.30;;;26.10;60.60;;;;;;5031568;28;20022;-79
2022/07/18 01:23:21;;;;;;;2.38;1.02;;;26.10;60.60;;;;;;5031291;28;20022;-79
2022/07/18 01:25:47;;;;;;;4.60;1.25;;;26.10;60.70;;;;;;5031549;28;20034;-79
2022/07/18 01:28:13;;;;;;;4.35;1.30;;;26.10;60.40;;;;;;5031761;28;20036;-79
2022/07/18 01:30:39;;;;;;;2.55;1.20;;;26.00;60.60;;;;;;5031440;28;20125;-79
2022/07/18 01:33:04;;;;;;;4.80;1.17;;;26.00;60.70;;;;;;5031405;28;20109;-78
2022/07/18 01:35:32;;;;;;;2.25;1.15;;;26.00;60.90;;;;;;5031527;28;20499;-79
2022/07/18 01:37:59;;;;;;;2.35;1.08;;;26.00;61.00;;;;;;5031781;28;20018;-79
2022/07/18 01:40:26;;;;;;;2.33;1.13;;;26.00;61.10;;;;;;5031176;28;20032;-79
2022/07/18 01:42:52;;;;;;;2.30;1.20;;;25.90;61.20;;;;;;5031287;28;20029;-79
2022/07/18 01:45:20;;;;;;;4.63;1.38;;;26.00;61.10;;;;;;5028636;28;20022;-79
2022/07/18 01:47:45;;;;;;;2.00;1.05;;;26.00;61.30;;;;;;5030944;28;20397;-79
2022/07/18 01:50:13;;;;;;;3.35;1.20;;;26.00;61.10;;;;;;5030980;28;20034;-79
2022/07/18 01:52:39;;;;;;;6.00;1.33;;;25.90;60.90;;;;;;5031196;28;20405;-79
2022/07/18 01:55:07;;;;;;;3.05;1.30;;;25.90;61.10;;;;;;5031030;28;20026;-79
2022/07/18 01:57:32;;;;;;;3.53;1.27;;;25.80;61.00;;;;;;5031295;28;20013;-79
2022/07/18 01:59:58;;;;;;;3.45;1.38;;;25.80;61.10;;;;;;5030944;28;20504;-79
2022/07/18 02:02:24;;;;;;;1.70;1.02;;;25.80;61.20;;;;;;5030625;28;20025;-79
2022/07/18 02:05:02;;;;;;;4.07;1.40;;;25.80;61.30;;;;;;5030767;28;20041;-79
2022/07/18 02:07:31;;;;;;;2.45;1.13;;;25.80;61.10;;;;;;5030800;28;20017;-78
2022/07/18 02:09:57;;;;;;;5.07;1.40;;;25.80;61.40;;;;;;5030779;28;20409;-79
2022/07/18 02:12:23;;;;;;;2.10;1.10;;;25.70;61.20;;;;;;5030874;28;20030;-79
2022/07/18 02:14:50;;;;;;;3.42;1.20;;;25.70;61.50;;;;;;5030002;28;20021;-79
2022/07/18 02:17:15;;;;;;;2.10;1.20;;;25.70;61.40;;;;;;5030611;28;20032;-79
2022/07/18 02:19:41;;;;;;;2.15;1.10;;;25.70;61.30;;;;;;5030592;28;20021;-79
2022/07/18 02:22:07;;;;;;;1.98;1.20;;;25.60;61.40;;;;;;5030511;28;20036;-79
2022/07/18 02:24:33;;;;;;;2.65;1.20;;;25.60;61.80;;;;;;5030226;28;20021;-79
2022/07/18 02:26:59;;;;;;;1.33;0.90;;;25.60;61.80;;;;;;5030370;28;20021;-79
2022/07/18 02:29:25;;;;;;;2.30;1.00;;;25.60;61.80;;;;;;5028921;28;20107;-79
2022/07/18 02:31:51;;;;;;;3.60;1.40;;;25.60;61.90;;;;;;5030237;28;20025;-79
2022/07/18 02:34:17;;;;;;;2.35;1.17;;;25.50;61.70;;;;;;5030416;28;20437;-79
2022/07/18 02:36:42;;;;;;;1.75;1.00;;;25.50;61.70;;;;;;5030478;28;20436;-79
2022/07/18 02:39:09;;;;;;;2.95;1.42;;;25.50;62.30;;;;;;5030273;28;20021;-79
2022/07/18 02:41:35;;;;;;;1.70;1.00;;;25.40;62.20;;;;;;5029924;28;20033;-79
2022/07/18 02:44:02;;;;;;;4.72;1.42;;;25.40;62.20;;;;;;5030013;28;20366;-79
2022/07/18 02:46:27;;;;;;;3.97;1.30;;;25.30;62.40;;;;;;5030015;28;20026;-79
2022/07/18 02:48:53;;;;;;;2.85;1.20;;;25.20;62.50;;;;;;5029811;28;20025;-79
2022/07/18 02:51:19;;;;;;;4.38;1.23;;;25.20;62.70;;;;;;5030306;28;20033;-79
2022/07/18 02:53:45;;;;;;;2.97;1.50;;;25.20;62.90;;;;;;5030080;28;20049;-79
2022/07/18 02:56:10;;;;;;;2.10;1.30;;;25.20;62.80;;;;;;5029995;28;20037;-79
2022/07/18 02:58:36;;;;;;;2.58;1.08;;;25.20;62.90;;;;;;5029838;28;20036;-79
2022/07/18 03:01:02;;;;;;;3.25;1.08;;;25.10;63.10;;;;;;5029809;28;20037;-79
2022/07/18 03:03:28;;;;;;;2.42;1.10;;;25.00;63.50;;;;;;5029888;28;20476;-79
2022/07/18 03:05:53;;;;;;;4.13;1.40;;;25.00;63.70;;;;;;5029706;28;20367;-79
2022/07/18 03:08:19;;;;;;;3.80;1.35;;;25.00;63.30;;;;;;5023036;28;20025;-79
2022/07/18 03:10:45;;;;;;;2.38;1.30;;;25.00;63.40;;;;;;5011318;28;20038;-78
2022/07/18 03:13:12;;;;;;;3.95;1.40;;;25.00;63.60;;;;;;5029812;28;20114;-79
2022/07/18 03:15:38;;;;;;;2.22;1.13;;;25.00;63.30;;;;;;5029948;28;20021;-79
2022/07/18 03:18:04;;;;;;;6.88;1.25;;;25.00;63.40;;;;;;5029606;28;20067;-79
2022/07/18 03:20:31;;;;;;;7.15;1.50;;;25.00;63.60;;;;;;5029588;28;20037;-79
2022/07/18 03:22:56;;;;;;;10.15;1.67;;;25.00;63.70;;;;;;5029437;28;20031;-79
2022/07/18 03:25:22;;;;;;;6.18;1.33;;;25.00;64.00;;;;;;5029405;28;20112;-80
2022/07/18 03:27:48;;;;;;;5.00;1.67;;;25.00;63.80;;;;;;5029604;28;20025;-79
2022/07/18 03:30:14;;;;;;;4.43;1.30;;;24.90;64.00;;;;;;5029097;28;20093;-79
2022/07/18 03:32:40;;;;;;;6.05;1.65;;;24.90;63.90;;;;;;5029695;28;20533;-80
2022/07/18 03:35:06;;;;;;;8.93;1.52;;;24.90;64.00;;;;;;5029568;28;20100;-80
2022/07/18 03:37:32;;;;;;;6.22;1.35;;;24.80;64.50;;;;;;5029712;28;20034;-79
2022/07/18 03:39:58;;;;;;;7.07;1.52;;;24.80;64.30;;;;;;5029323;28;20496;-79
2022/07/18 03:42:24;;;;;;;6.20;1.40;;;24.80;64.20;;;;;;5029791;28;20028;-80
2022/07/18 03:44:49;;;;;;;7.78;1.23;;;24.80;64.30;;;;;;5010739;28;20038;-80
2022/07/18 03:47:15;;;;;;;5.55;1.23;;;24.80;64.40;;;;;;5029344;28;20032;-79
2022/07/18 03:49:41;;;;;;;4.65;1.70;;;24.80;64.20;;;;;;5029314;28;20037;-79
2022/07/18 03:52:06;;;;;;;8.73;1.67;;;24.70;64.90;;;;;;5029203;28;20051;-79
2022/07/18 03:54:32;;;;;;;4.97;1.70;;;24.60;64.90;;;;;;5029296;28;20030;-79
2022/07/18 03:56:57;;;;;;;5.53;1.45;;;24.50;65.10;;;;;;5029451;28;20032;-80
2022/07/18 03:59:23;;;;;;;5.22;1.48;;;24.60;65.40;;;;;;5029343;28;20026;-80
2022/07/18 04:01:49;;;;;;;4.35;1.80;;;24.60;65.00;;;;;;5029612;28;20113;-80
2022/07/18 04:04:14;;;;;;;5.65;1.42;;;24.60;65.10;;;;;;5028662;28;20112;-80
2022/07/18 04:06:40;;;;;;;3.88;1.10;;;24.60;65.10;;;;;;5029409;28;20034;-79
2022/07/18 04:09:06;;;;;;;4.28;1.30;;;24.60;65.10;;;;;;5029056;28;20021;-79
2022/07/18 04:11:32;;;;;;;3.22;1.30;;;24.50;65.00;;;;;;5029035;28;20034;-79
2022/07/18 04:13:57;;;;;;;2.10;1.27;;;24.50;65.60;;;;;;5029122;28;20076;-80
2022/07/18 04:16:23;;;;;;;2.25;1.38;;;24.40;65.50;;;;;;5027767;28;20578;-80
2022/07/18 04:18:49;;;;;;;3.45;1.20;;;24.40;65.60;;;;;;5029070;28;20392;-80
2022/07/18 04:21:15;;;;;;;2.15;1.50;;;24.50;65.50;;;;;;5029325;28;20236;-79
2022/07/18 04:23:41;;;;;;;2.78;1.20;;;24.50;65.60;;;;;;5029203;28;20026;-80
2022/07/18 04:26:07;;;;;;;5.38;1.60;;;24.50;65.00;;;;;;5029254;28;20032;-80
2022/07/18 04:28:33;;;;;;;4.28;1.40;;;24.60;65.50;;;;;;5007825;28;20060;-79
2022/07/18 04:30:58;;;;;;;7.13;1.80;;;24.50;65.40;;;;;;5025653;28;20143;-79
2022/07/18 04:33:24;;;;;;;5.22;1.63;;;24.40;66.00;;;;;;5028667;28;20075;-80
2022/07/18 04:35:50;;;;;;;2.13;1.35;;;24.40;65.60;;;;;;5028828;28;20389;-79
2022/07/18 04:38:16;;;;;;;18.52;2.03;;;24.40;66.00;;;;;;5031125;28;20374;-80
2022/07/18 04:40:42;;;;;;;13.30;2.10;;;24.30;65.90;;;;;;5032637;28;20366;-79
2022/07/18 04:43:08;;;;;;;2.80;1.42;;;24.30;66.00;;;;;;5032622;28;20033;-79
2022/07/18 04:45:35;;;;;;;4.57;1.50;;;24.40;65.90;;;;;;5032423;28;20079;-80
2022/07/18 04:48:02;;;;;;;4.90;1.50;;;24.40;66.10;;;;;;5032262;28;20018;-79
2022/07/18 04:50:29;;;;;;;9.40;1.85;;;24.40;65.70;;;;;;5032016;28;20087;-79
2022/07/18 04:52:56;;;;;;;5.70;1.80;;;24.40;65.70;;;;;;5032118;28;20021;-79
2022/07/18 04:55:23;;;;;;;4.07;1.50;;;24.40;65.90;;;;;;5032051;28;20034;-79
2022/07/18 04:57:50;;;;;;;14.63;1.83;;;24.30;66.10;;;;;;5032407;28;20041;-79
2022/07/18 05:00:19;;;;;;;8.35;1.77;;;24.30;66.00;;;;;;5032179;28;20033;-79
2022/07/18 05:02:47;;;;;;;3.97;1.23;;;24.30;65.90;;;;;;5031076;28;20079;-80
2022/07/18 05:05:14;;;;;;;3.35;1.45;;;24.20;65.90;;;;;;5032230;28;20029;-79
2022/07/18 05:07:41;;;;;;;3.97;1.58;;;24.40;65.70;;;;;;5031789;28;20492;-79
2022/07/18 05:10:08;;;;;;;3.42;1.23;;;24.30;65.50;;;;;;5031618;28;20041;-79
2022/07/18 05:12:38;;;;;;;4.88;1.45;;;24.30;66.30;;;;;;5031836;28;20033;-80
2022/07/18 05:15:06;;;;;;;1.85;1.20;;;24.30;66.00;;;;;;5031970;28;20100;-80
2022/07/18 05:17:32;;;;;;;2.17;1.27;;;24.30;66.00;;;;;;5032058;28;20025;-80
2022/07/18 05:19:58;;;;;;;2.50;1.33;;;24.30;66.10;;;;;;5032173;28;20017;-80
2022/07/18 05:22:24;;;;;;;4.47;1.50;;;24.40;65.90;;;;;;5032324;28;20155;-79
2022/07/18 05:24:50;;;;;;;5.78;1.40;;;24.50;65.70;;;;;;5031769;28;20188;-80
2022/07/18 05:27:15;;;;;;;4.03;1.80;;;24.50;66.10;;;;;;5024978;28;20164;-79
2022/07/18 05:29:41;;;;;;;4.60;1.83;;;24.50;66.30;;;;;;5031124;28;20462;-80
2022/07/18 05:32:07;;;;;;;3.55;1.50;;;24.50;66.30;;;;;;5031280;28;20022;-80
2022/07/18 05:34:33;;;;;;;4.18;1.40;;;24.60;66.10;;;;;;5031637;28;20021;-79
2022/07/18 05:36:59;;;;;;;3.17;1.60;;;24.60;66.10;;;;;;5031495;28;20390;-85
2022/07/18 05:39:25;;;;;;;5.50;1.50;;;24.70;66.40;;;;;;5031446;28;20057;-79
2022/07/18 05:41:51;;;;;;;2.22;1.30;;;24.70;66.00;;;;;;5033234;28;20037;-85
2022/07/18 05:44:19;;;;;;;5.82;1.33;;;24.60;65.90;;;;;;5013262;28;20022;-87
2022/07/18 05:46:46;;;;;;;3.78;1.52;;;24.70;66.30;;;;;;5032107;28;20041;-86
2022/07/18 05:49:12;;;;;;;2.85;1.40;;;24.70;66.00;;;;;;5009887;28;20021;-85
2022/07/18 05:51:38;;;;;;;3.53;1.48;;;24.70;65.70;;;;;;5028523;28;20128;-85
2022/07/18 05:54:03;;;;;;;4.75;1.75;;;24.80;66.00;;;;;;5031153;28;20163;-86
2022/07/18 05:56:29;;;;;;;5.15;1.60;;;24.80;66.50;;;;;;5030636;28;20055;-86
2022/07/18 05:58:55;;;;;;;4.18;1.50;;;24.90;65.40;;;;;;5030943;28;20022;-85
2022/07/18 06:01:20;;;;;;;3.33;1.55;;;24.80;66.20;;;;;;5032247;28;20045;-86
2022/07/18 06:03:50;;;;;;;4.80;1.90;;;24.90;66.00;;;;;;5038267;28;20085;-85
2022/07/18 06:06:18;;;;;;;3.45;1.58;;;25.00;65.80;;;;;;5042431;28;20184;-85
2022/07/18 06:08:44;;;;;;;10.07;1.70;;;25.10;65.70;;;;;;5032833;28;20036;-85
2022/07/18 06:11:11;;;;;;;5.50;1.70;;;25.10;65.50;;;;;;5030883;28;20033;-85
2022/07/18 06:13:37;;;;;;;5.03;1.80;;;25.20;65.70;;;;;;5030834;28;20385;-85
2022/07/18 06:16:04;;;;;;;3.35;1.60;;;25.10;65.90;;;;;;5012873;28;20025;-85
2022/07/18 06:18:30;;;;;;;4.10;1.80;;;25.20;65.90;;;;;;5029336;28;20573;-85
2022/07/18 06:20:55;;;;;;;3.38;1.42;;;25.20;65.50;;;;;;5009976;28;20125;-86
2022/07/18 06:23:21;;;;;;;7.40;1.98;;;25.30;65.50;;;;;;5029254;28;20493;-85
2022/07/18 06:25:47;;;;;;;1.80;1.30;;;25.40;65.20;;;;;;5029190;28;20029;-85
2022/07/18 06:28:12;;;;;;;4.43;1.77;;;25.50;65.40;;;;;;5010618;28;20034;-85
2022/07/18 06:30:38;;;;;;;3.63;1.52;;;25.50;65.10;;;;;;5029257;28;20678;-85
2022/07/18 06:33:05;;;;;;;3.13;1.60;;;25.60;65.30;;;;;;5029784;28;20052;-85
2022/07/18 06:35:32;;;;;;;6.75;1.85;;;25.60;64.70;;;;;;5024036;28;20021;-85
2022/07/18 06:37:57;;;;;;;9.60;2.17;;;25.80;64.90;;;;;;5030408;28;20040;-85
2022/07/18 06:40:25;;;;;;;5.32;1.90;;;25.90;64.70;;;;;;5030158;28;20017;-85
2022/07/18 06:42:54;;;;;;;7.13;2.20;;;25.90;64.50;;;;;;5030418;28;20029;-85
2022/07/18 06:45:19;;;;;;;10.57;2.33;;;26.00;64.40;;;;;;5030057;28;20052;-85
2022/07/18 06:47:46;;;;;;;9.02;1.98;;;26.00;64.60;;;;;;5029853;28;20061;-85
2022/07/18 06:50:13;;;;;;;8.48;2.08;;;26.10;64.40;;;;;;5029837;28;20034;-85
2022/07/18 06:52:40;;;;;;;6.78;1.67;;;26.20;64.00;;;;;;5030275;28;20045;-85
2022/07/18 06:55:07;;;;;;;11.68;1.90;;;26.20;64.00;;;;;;5030273;28;20428;-85
2022/07/18 06:57:33;;;;;;;5.50;2.05;;;26.30;63.40;;;;;;5030011;28;20377;-85
2022/07/18 06:59:58;;;;;;;8.00;1.90;;;26.40;63.40;;;;;;5029627;28;20029;-85
2022/07/18 07:02:24;;;;;;;5.00;1.77;;;26.40;63.40;;;;;;5029647;28;20453;-85
2022/07/18 07:04:50;;;;;;;8.55;1.75;;;26.50;64.00;;;;;;5029985;28;20277;-85
2022/07/18 07:07:16;;;;;;;6.85;1.83;;;26.60;63.90;;;;;;5029614;28;20481;-85
2022/07/18 07:09:42;;;;;;;7.88;2.10;;;26.60;63.40;;;;;;5029647;28;20052;-85
2022/07/18 07:12:07;;;;;;;4.47;1.67;;;26.70;63.50;;;;;;5030600;28;20072;-85
2022/07/18 07:14:33;;;;;;;7.53;2.25;;;26.80;63.20;;;;;;5029706;28;20021;-85
2022/07/18 07:16:59;;;;;;;5.95;1.80;;;26.80;63.20;;;;;;5029775;28;20182;-85
2022/07/18 07:19:24;;;;;;;4.10;1.70;;;26.90;63.40;;;;;;5029679;28;20469;-85
2022/07/18 07:21:50;;;;;;;6.65;1.73;;;27.00;62.80;;;;;;5029916;28;20108;-85
2022/07/18 07:24:16;;;;;;;7.72;1.60;;;27.10;63.10;;;;;;5029572;28;20021;-85
2022/07/18 07:26:42;;;;;;;8.50;2.00;;;27.10;63.10;;;;;;5029469;28;20021;-85
2022/07/18 07:29:07;;;;;;;7.43;2.08;;;27.20;62.70;;;;;;5029225;28;20088;-85
2022/07/18 07:31:33;;;;;;;5.70;1.80;;;27.30;62.40;;;;;;5010267;28;20459;-85
2022/07/18 07:33:59;;;;;;;8.05;2.10;;;27.40;62.90;;;;;;5029685;28;20101;-85
2022/07/18 07:36:24;;;;;;;8.13;1.83;;;27.50;63.20;;;;;;5029481;28;20128;-84
2022/07/18 07:38:50;;;;;;;11.80;2.10;;;27.60;62.20;;;;;;5029741;28;20084;-84
2022/07/18 07:41:17;;;;;;;4.60;2.05;;;27.60;62.20;;;;;;5029746;28;20064;-85
2022/07/18 07:43:42;;;;;;;5.97;2.15;;;27.80;62.70;;;;;;5029404;28;20344;-85
2022/07/18 07:46:10;;;;;;;5.25;2.17;;;27.90;62.30;;;;;;5029432;28;20685;-85
2022/07/18 07:48:36;;;;;;;6.07;2.13;;;28.00;61.80;;;;;;5029014;28;20021;-85
2022/07/18 07:51:03;;;;;;;4.22;1.90;;;28.00;61.90;;;;;;5029161;28;20037;-84
2022/07/18 07:53:29;;;;;;;8.10;2.13;;;28.20;61.90;;;;;;5029460;28;20417;-85
2022/07/18 07:55:54;;;;;;;6.38;2.55;;;28.30;61.60;;;;;;5029823;28;20037;-85
2022/07/18 07:58:20;;;;;;;7.18;1.90;;;28.40;61.50;;;;;;5029404;28;20064;-85
2022/07/18 08:00:46;;;;;;;13.23;2.13;;;28.50;61.20;;;;;;5029339;28;20029;-84
2022/07/18 08:03:12;;;;;;;6.15;2.42;;;28.60;60.90;;;;;;5029332;28;20458;-84
2022/07/18 08:05:43;;;;;;;5.93;2.40;;;28.80;60.70;;;;;;5029163;28;20408;-85
2022/07/18 08:08:09;;;;;;;6.30;2.00;;;28.80;60.70;;;;;;5029005;28;20071;-84
2022/07/18 08:10:35;;;;;;;5.60;2.05;;;29.00;60.60;;;;;;5028825;28;20065;-84
2022/07/18 08:13:00;;;;;;;9.13;2.50;;;29.10;60.40;;;;;;5031216;28;20055;-84
2022/07/18 08:15:29;;;;;;;8.75;2.50;;;29.30;59.80;;;;;;5015391;28;20029;-85
2022/07/18 08:17:55;;;;;;;8.98;2.10;;;29.40;59.80;;;;;;5033322;28;20033;-84
2022/07/18 08:20:21;;;;;;;7.13;2.25;;;29.50;60.00;;;;;;5033093;28;20381;-81
2022/07/18 08:22:58;;;;;;;13.00;3.13;;;29.60;60.00;;;;;;5032980;28;20033;-88
2022/07/18 08:25:25;;;;;;;5.35;2.28;;;29.70;60.90;;;;;;5032889;28;20028;-87
2022/07/18 08:27:51;;;;;;;9.02;2.70;;;29.80;61.70;;;;;;5032941;28;20025;-88
2022/07/18 08:30:17;;;;;;;8.07;2.92;;;29.80;60.50;;;;;;5032412;28;20033;-87
2022/07/18 08:32:43;;;;;;;6.60;2.42;;;29.90;60.10;;;;;;5032699;28;20071;-87
2022/07/18 08:35:09;;;;;;;8.02;2.25;;;30.00;59.80;;;;;;5033057;28;20017;-87
2022/07/18 08:37:34;;;;;;;5.35;2.38;;;30.10;59.90;;;;;;5032745;28;20033;-87
2022/07/18 08:40:00;;;;;;;4.93;2.35;;;30.20;59.40;;;;;;5032595;28;20025;-87
2022/07/18 08:42:27;;;;;;;5.32;2.40;;;30.30;59.00;;;;;;5032586;28;20028;-88
2022/07/18 08:44:55;;;;;;;4.22;1.90;;;30.40;58.50;;;;;;5032733;28;20065;-88
2022/07/18 08:47:22;;;;;;;7.47;2.45;;;30.40;58.90;;;;;;5032185;28;20029;-87
2022/07/18 08:49:48;;;;;;;6.57;2.40;;;30.50;59.10;;;;;;5032268;28;20030;-88
2022/07/18 08:52:15;;;;;;;6.95;2.85;;;30.60;58.60;;;;;;5014408;28;20017;-88
2022/07/18 08:54:41;;;;;;;7.57;2.40;;;30.70;59.40;;;;;;5032355;28;20029;-87
2022/07/18 08:57:07;;;;;;;5.80;2.45;;;30.80;58.50;;;;;;5032343;28;20100;-87
2022/07/18 08:59:33;;;;;;;5.93;2.17;;;31.00;58.30;;;;;;5032220;28;20116;-87
2022/07/18 09:01:58;;;;;;;6.55;2.67;;;31.00;58.80;;;;;;5014047;28;20481;-88
2022/07/18 09:04:41;;;;;;;5.28;2.25;;;31.10;58.30;;;;;;5011422;28;20036;-87
2022/07/18 09:07:09;;;;;;;3.72;2.35;;;31.20;58.20;;;;;;5030686;28;20024;-87
2022/07/18 09:09:36;;;;;;;3.35;2.35;;;31.40;58.00;;;;;;5032103;28;20029;-88
2022/07/18 09:12:09;;;;;;;6.30;2.45;;;31.50;57.50;;;;;;5031829;28;20034;-88
2022/07/18 09:14:36;;;;;;;6.63;2.58;;;31.60;57.10;;;;;;5031949;28;20029;-87
2022/07/18 09:17:23;;;;;;;6.03;2.30;;;31.70;56.80;;;;;;5031947;28;20032;-88
2022/07/18 09:20:03;;;;;;;4.78;2.25;;;31.80;56.70;;;;;;5031964;28;20556;-88
2022/07/18 09:22:32;;;;;;;6.05;2.20;;;31.90;56.70;;;;;;5025473;28;20029;-88
2022/07/18 09:25:08;;;;;;;11.63;2.50;;;32.00;56.60;;;;;;5031454;28;20013;-87
2022/07/18 09:27:43;;;;;;;15.55;2.25;;;32.10;56.20;;;;;;5031586;28;20512;-88
2022/07/18 09:30:24;;;;;;;6.63;2.17;;;32.30;56.90;;;;;;5031254;28;20037;-88
2022/07/18 09:33:03;;;;;;;7.65;2.33;;;32.40;55.80;;;;;;5031959;28;20029;-87
2022/07/18 09:35:51;;;;;;;6.45;2.28;;;32.40;54.80;;;;;;5010835;28;20117;-87
2022/07/18 09:38:20;;;;;;;8.77;2.45;;;32.50;55.50;;;;;;5025516;28;20589;-87
2022/07/18 09:40:57;;;;;;;4.95;2.40;;;32.70;55.10;;;;;;5031264;28;20024;-87
2022/07/18 09:43:24;;;;;;;8.55;2.28;;;32.80;55.00;;;;;;5031266;28;20033;-87
2022/07/18 09:45:54;;;;;;;8.15;2.60;;;33.00;54.50;;;;;;5029886;28;20017;-88
2022/07/18 09:48:22;;;;;;;5.28;2.30;;;33.20;54.60;;;;;;5031114;28;20022;-88
2022/07/18 09:50:55;;;;;;;7.95;2.55;;;33.20;55.30;;;;;;5031352;28;20076;-88
2022/07/18 09:53:36;;;;;;;7.30;2.50;;;33.30;55.00;;;;;;5031271;28;20485;-87
2022/07/18 09:56:06;;;;;;;7.22;2.53;;;33.40;54.30;;;;;;5031369;28;20576;-87
2022/07/18 09:58:37;;;;;;;6.57;2.30;;;33.50;53.50;;;;;;5031037;28;20029;-87
2022/07/18 10:01:05;;;;;;;9.23;2.53;;;33.60;53.90;;;;;;5024487;28;20025;-87
2022/07/18 10:03:31;;;;;;;10.60;2.88;;;33.70;54.00;;;;;;5030822;28;20025;-87
2022/07/18 10:05:58;;;;;;;8.02;2.55;;;33.70;54.10;;;;;;5031359;28;20028;-87
2022/07/18 10:08:26;;;;;;;7.82;2.70;;;33.90;53.30;;;;;;5031117;28;20036;-88
2022/07/18 10:10:55;;;;;;;6.95;2.40;;;34.00;53.50;;;;;;5030858;28;20037;-88
2022/07/18 10:13:22;;;;;;;4.65;2.42;;;34.10;53.20;;;;;;5030519;28;20371;-87
2022/07/18 10:15:52;;;;;;;7.78;2.88;;;34.20;53.00;;;;;;5030705;28;20028;-88
2022/07/18 10:18:20;;;;;;;8.98;2.38;;;34.20;53.40;;;;;;5030320;28;20021;-88
2022/07/18 10:20:59;;;;;;;5.20;2.50;;;34.40;52.90;;;;;;5030740;28;20026;-88
2022/07/18 10:23:46;;;;;;;3.50;2.38;;;34.50;53.50;;;;;;5031135;28;20048;-88
2022/07/18 10:26:18;;;;;;;5.18;2.20;;;34.60;53.30;;;;;;5030683;28;20310;-88
2022/07/18 10:28:55;;;;;;;6.97;2.10;;;34.70;52.50;;;;;;5029200;28;20021;-84
2022/07/18 10:31:27;;;;;;;5.70;2.67;;;34.80;52.80;;;;;;5032410;28;20033;-85
2022/07/18 10:34:11;;;;;;;4.70;2.55;;;35.00;52.20;;;;;;5019499;28;20067;-85
2022/07/18 10:36:50;;;;;;;5.38;2.15;;;35.10;52.60;;;;;;5023569;28;20041;-85
2022/07/18 10:39:20;;;;;;;3.25;2.20;;;35.10;52.90;;;;;;5024053;28;20033;-85
2022/07/18 10:41:46;;;;;;;5.18;1.95;;;35.30;51.40;;;;;;5041910;28;20021;-85
2022/07/18 10:44:24;;;;;;;4.35;2.03;;;35.50;50.70;;;;;;5023829;28;20351;-85
2022/07/18 10:47:09;;;;;;;7.45;2.40;;;35.50;50.70;;;;;;5040827;28;20112;-85
2022/07/18 10:49:47;;;;;;;4.75;2.20;;;35.60;50.20;;;;;;5035767;28;20033;-85
2022/07/18 10:52:25;;;;;;;4.72;2.22;;;35.70;50.50;;;;;;5038829;28;20029;-85
2022/07/18 10:55:03;;;;;;;6.72;2.35;;;35.80;50.60;;;;;;5038870;28;20022;-85
2022/07/18 10:57:34;;;;;;;4.43;2.28;;;35.90;51.00;;;;;;5023623;28;20028;-84
2022/07/18 11:00:06;;;;;;;4.72;2.25;;;36.10;50.20;;;;;;5039838;28;20283;-85
2022/07/18 11:02:41;;;;;;;6.32;2.45;;;36.20;50.30;;;;;;5032046;28;20100;-85
2022/07/18 11:05:24;;;;;;;5.68;2.33;;;36.30;50.20;;;;;;5040096;28;20032;-88
2022/07/18 11:08:02;;;;;;;4.20;2.20;;;36.40;50.00;;;;;;5039302;28;20036;-85
2022/07/18 11:10:43;;;;;;;4.10;2.42;;;36.50;50.00;;;;;;5040922;28;20076;-85
2022/07/18 11:13:28;;;;;;;6.95;2.30;;;36.70;49.80;;;;;;5039015;28;20071;-85
2022/07/18 11:16:02;;;;;;;3.70;2.35;;;36.70;50.00;;;;;;5041214;28;20024;-85
2022/07/18 11:18:30;;;;;;;3.35;2.00;;;36.80;49.10;;;;;;5034675;28;20033;-85
2022/07/18 11:20:56;;;;;;;4.47;2.40;;;37.10;49.20;;;;;;5035787;28;20678;-85
2022/07/18 11:23:24;;;;;;;5.57;2.05;;;37.20;48.40;;;;;;5040542;28;20029;-85
2022/07/18 11:25:54;;;;;;;4.72;2.30;;;37.40;47.80;;;;;;5015811;28;20493;-85
2022/07/18 11:28:20;;;;;;;4.25;2.35;;;37.40;48.40;;;;;;5040419;28;20092;-85
2022/07/18 11:31:02;;;;;;;3.85;2.20;;;37.50;47.60;;;;;;5039997;28;20052;-85
2022/07/18 11:33:31;;;;;;;4.20;2.10;;;37.60;46.80;;;;;;5037478;28;20025;-85
2022/07/18 11:36:03;;;;;;;6.03;2.15;;;37.80;46.80;;;;;;5038811;28;20021;-84
2022/07/18 11:38:29;;;;;;;7.07;2.10;;;38.00;46.90;;;;;;5038778;28;20029;-85
2022/07/18 11:40:55;;;;;;;9.80;2.13;;;38.10;46.50;;;;;;5031116;28;20040;-85
2022/07/18 11:43:25;;;;;;;5.32;2.53;;;38.30;46.30;;;;;;5014512;28;20232;-85
2022/07/18 11:46:10;;;;;;;3.40;1.92;;;38.30;46.50;;;;;;5041199;28;20048;-85
2022/07/18 11:48:38;;;;;;;4.47;2.33;;;38.30;46.60;;;;;;5043762;28;20032;-85
2022/07/18 11:51:23;;;;;;;4.22;1.95;;;38.40;46.70;;;;;;5044153;28;20040;-85
2022/07/18 11:53:51;;;;;;;3.13;2.00;;;38.60;46.00;;;;;;5026764;28;20021;-85
2022/07/18 11:56:18;;;;;;;3.72;2.00;;;38.60;46.70;;;;;;5034582;28;20596;-85
2022/07/18 11:58:46;;;;;;;6.13;1.98;;;38.60;46.00;;;;;;5034504;28;20022;-85
2022/07/18 12:01:12;;;;;;;4.05;2.10;;;38.80;44.80;;;;;;5032822;28;20060;-85
2022/07/18 12:03:41;;;;;;;7.97;2.25;;;38.80;45.00;;;;;;5030028;28;20020;-84
2022/07/18 12:06:11;;;;;;;4.47;2.10;;;38.90;45.60;;;;;;5033036;28;20040;-85
2022/07/18 12:08:48;;;;;;;3.42;1.98;;;39.10;45.30;;;;;;5033756;28;20097;-85
2022/07/18 12:11:19;;;;;;;3.38;2.15;;;39.10;45.50;;;;;;5032459;28;20064;-86
2022/07/18 12:13:47;;;;;;;3.47;2.13;;;39.10;45.60;;;;;;5037511;28;20014;-85
2022/07/18 12:16:29;;;;;;;5.90;2.10;;;39.10;45.50;;;;;;5039161;28;20346;-87
2022/07/18 12:18:57;;;;;;;3.00;2.10;;;39.30;46.00;;;;;;5038866;28;20018;-86
2022/07/18 12:21:22;;;;;;;7.78;2.30;;;39.40;45.00;;;;;;5032529;28;20177;-86
2022/07/18 12:23:48;;;;;;;6.13;2.30;;;39.40;45.40;;;;;;5032436;28;20188;-85
2022/07/18 12:26:31;;;;;;;5.85;2.20;;;39.60;45.40;;;;;;5032219;28;20028;-85
2022/07/18 12:29:08;;;;;;;4.40;2.08;;;39.80;44.90;;;;;;5031878;28;20017;-85
2022/07/18 12:31:46;;;;;;;7.88;2.65;;;40.00;45.00;;;;;;5032134;28;20037;-84
2022/07/18 12:34:22;;;;;;;6.68;2.13;;;40.20;45.40;;;;;;5032315;28;20026;-85
2022/07/18 12:36:59;;;;;;;7.72;2.47;;;40.10;44.80;;;;;;5029631;28;20025;-85
2022/07/18 12:39:32;;;;;;;3.03;2.33;;;40.20;45.00;;;;;;5030718;28;20013;-85
2022/07/18 12:41:58;;;;;;;;;;;40.50;44.70;;;;;;5032661;28;20416;-86
2022/07/18 12:44:28;;;;;;;5.65;1.90;;;40.60;43.90;;;;;;5032038;28;19905;-86
2022/07/18 12:46:54;;;;;;;6.78;2.17;;;40.80;44.00;;;;;;5031706;28;20025;-86
2022/07/18 12:49:20;;;;;;;5.35;2.42;;;40.80;43.90;;;;;;5031926;28;20481;-86